createdAt,value
2023-02-27T00:01:49.290Z,10.10
2023-02-27T00:06:51.073Z,9.80
2023-02-27T00:11:57.735Z,7.30
2023-02-27T00:17:04.094Z,8.60
2023-02-27T00:22:05.838Z,7.80
2023-02-27T00:27:07.554Z,7.40
2023-02-27T00:32:09.253Z,5.70
2023-02-27T00:37:13.218Z,6.90
2023-02-27T00:42:15.012Z,5.90
2023-02-27T00:52:18.632Z,6.40
2023-02-27T01:02:22.531Z,5.10
2023-02-27T01:07:24.605Z,5.60
2023-02-27T01:12:26.370Z,5.70
2023-02-27T01:17:28.057Z,5.70
2023-02-27T01:22:29.729Z,5.30
2023-02-27T01:32:33.520Z,5.60
2023-02-27T01:37:35.496Z,4.70
2023-02-27T01:47:48.310Z,5.30
2023-02-27T01:52:56.205Z,4.10
2023-02-27T01:57:58.236Z,6.70
2023-02-27T02:03:08.268Z,5.10
2023-02-27T02:08:13.970Z,4.40
2023-02-27T02:13:15.744Z,4.90
2023-02-27T02:23:21.808Z,4.70
2023-02-27T02:28:52.932Z,5.70
2023-02-27T02:34:01.893Z,5.00
2023-02-27T02:39:24.041Z,5.00
2023-02-27T02:44:40.908Z,7.30
2023-02-27T02:49:50.450Z,6.70
2023-02-27T02:55:16.725Z,7.50
2023-02-27T03:00:22.779Z,6.60
2023-02-27T03:05:32.094Z,5.10
2023-02-27T03:10:50.544Z,4.60
2023-02-27T03:16:11.575Z,4.40
2023-02-27T03:21:22.716Z,3.40
2023-02-27T03:26:33.580Z,2.90
2023-02-27T03:31:47.643Z,2.40
2023-02-27T03:37:11.574Z,2.30
2023-02-27T03:42:41.722Z,3.00
2023-02-27T03:47:51.963Z,2.60
2023-02-27T03:52:54.715Z,2.90
2023-02-27T03:57:56.729Z,2.00
2023-02-27T04:03:00.555Z,2.40
2023-02-27T04:08:37.362Z,2.80
2023-02-27T04:14:22.949Z,2.50
2023-02-27T04:19:42.936Z,3.00
2023-02-27T04:25:01.738Z,3.00
2023-02-27T04:30:14.068Z,3.60
2023-02-27T04:35:29.523Z,2.70
2023-02-27T04:40:49.109Z,3.30
2023-02-27T04:45:53.390Z,3.80
2023-02-27T04:51:03.259Z,3.60
2023-02-27T04:56:12.013Z,4.90
2023-02-27T05:06:35.422Z,4.00
2023-02-27T05:11:53.724Z,3.90
2023-02-27T05:17:40.032Z,3.90
2023-02-27T05:22:51.196Z,4.00
2023-02-27T05:28:02.768Z,3.90
2023-02-27T05:38:28.663Z,4.70
2023-02-27T05:43:48.985Z,3.40
2023-02-27T05:48:57.212Z,3.60
2023-02-27T05:54:16.312Z,5.60
2023-02-27T05:59:26.555Z,4.80
2023-02-27T06:04:28.909Z,4.30
2023-02-27T06:09:31.869Z,5.10
2023-02-27T06:14:33.537Z,4.50
2023-02-27T06:24:37.424Z,5.00
2023-02-27T06:29:39.078Z,4.30
2023-02-27T06:39:42.387Z,3.50
2023-02-27T06:44:44.110Z,4.00
2023-02-27T06:49:45.783Z,4.70
2023-02-27T07:04:51.353Z,6.60
2023-02-27T07:09:53.121Z,6.60
2023-02-27T07:19:56.358Z,5.70
2023-02-27T07:24:58.038Z,7.10
2023-02-27T07:30:00.316Z,7.80
2023-02-27T07:35:03.439Z,5.30
2023-02-27T07:40:07.702Z,4.50
2023-02-27T07:45:09.952Z,5.00
2023-02-27T07:50:14.067Z,6.30
2023-02-27T07:55:15.898Z,5.30
2023-02-27T08:00:18.176Z,7.20
2023-02-27T08:05:19.857Z,6.60
2023-02-27T08:20:25.341Z,8.00
2023-02-27T08:25:27.207Z,6.50
2023-02-27T08:30:29.088Z,6.90
2023-02-27T08:35:31.426Z,6.80
2023-02-27T08:40:33.271Z,6.80
2023-02-27T08:50:36.478Z,8.40
2023-02-27T09:05:42.565Z,8.70
2023-02-27T09:10:44.305Z,9.00
2023-02-27T09:20:51.207Z,7.30
2023-02-27T09:25:53.122Z,5.40
2023-02-27T09:30:54.784Z,6.60
2023-02-27T09:40:59.593Z,5.50
2023-02-27T09:46:02.936Z,4.00
2023-02-27T09:51:05.171Z,3.80
2023-02-27T09:56:21.660Z,6.20
2023-02-27T10:01:57.161Z,7.00
2023-02-27T10:07:04.022Z,6.40
2023-02-27T10:12:14.740Z,6.70
2023-02-27T10:17:28.425Z,6.00
2023-02-27T10:22:43.247Z,5.90
2023-02-27T10:27:48.329Z,7.80
2023-02-27T10:32:54.378Z,7.40
2023-02-27T10:38:01.900Z,5.60
2023-02-27T10:43:06.439Z,7.30
2023-02-27T10:48:08.715Z,7.30
2023-02-27T10:53:22.478Z,7.30
2023-02-27T10:58:24.616Z,5.30
2023-02-27T11:03:32.475Z,2.70
2023-02-27T11:08:35.882Z,1.80
2023-02-27T11:13:47.074Z,3.20
2023-02-27T11:18:51.164Z,2.40
2023-02-27T11:24:02.153Z,3.10
2023-02-27T11:29:17.758Z,2.70
2023-02-27T11:34:48.173Z,4.20
2023-02-27T11:39:57.813Z,4.40
2023-02-27T11:45:07.632Z,3.40
2023-02-27T11:50:32.160Z,2.90
2023-02-27T11:55:34.974Z,2.60
2023-02-27T12:00:42.340Z,3.30
2023-02-27T12:05:48.636Z,2.60
2023-02-27T12:11:22.033Z,3.60
2023-02-27T12:16:43.151Z,3.20
2023-02-27T12:21:50.122Z,3.10
2023-02-27T12:27:01.244Z,3.60
2023-02-27T12:32:40.806Z,3.70
2023-02-27T12:37:42.577Z,4.80
2023-02-27T12:43:10.878Z,3.20
2023-02-27T12:48:23.903Z,4.00
2023-02-27T12:53:25.547Z,4.20
2023-02-27T13:04:00.552Z,4.30
2023-02-27T13:09:15.867Z,4.60
2023-02-27T13:14:53.619Z,4.80
2023-02-27T13:20:01.807Z,5.80
2023-02-27T13:25:14.251Z,6.60
2023-02-27T13:30:22.944Z,6.10
2023-02-27T13:35:36.261Z,6.60
2023-02-27T13:40:40.913Z,5.40
2023-02-27T13:45:59.197Z,6.90
2023-02-27T13:51:01.773Z,6.70
2023-02-27T13:56:22.298Z,8.00
2023-02-27T14:01:28.563Z,4.60
2023-02-27T14:06:30.956Z,5.20
2023-02-27T14:11:39.705Z,4.00
2023-02-27T14:16:41.362Z,5.30
2023-02-27T14:27:24.062Z,5.90
2023-02-27T14:32:33.757Z,7.10
2023-02-27T14:37:36.285Z,8.50
2023-02-27T14:42:56.949Z,6.60
2023-02-27T14:47:59.041Z,6.50
2023-02-27T14:53:01.655Z,13.90
2023-02-27T14:58:16.157Z,8.40
2023-02-27T15:03:32.435Z,8.50
2023-02-27T15:08:41.898Z,6.20
2023-02-27T15:13:45.032Z,10.10
2023-02-27T15:18:50.910Z,9.80
2023-02-27T15:24:01.351Z,12.30
2023-02-27T15:29:06.179Z,10.90
2023-02-27T15:34:13.976Z,9.60
2023-02-27T15:39:19.032Z,7.80
2023-02-27T15:44:26.062Z,6.00
2023-02-27T15:49:27.869Z,6.30
2023-02-27T15:54:34.390Z,9.00
2023-02-27T15:59:42.100Z,8.20
2023-02-27T16:04:46.059Z,7.40
2023-02-27T16:10:00.699Z,8.80
2023-02-27T16:15:21.040Z,8.40
2023-02-27T16:20:54.986Z,6.10
2023-02-27T16:26:09.005Z,6.80
2023-02-27T16:31:40.656Z,9.70
2023-02-27T16:36:52.931Z,11.20
2023-02-27T16:41:56.890Z,10.10
2023-02-27T16:47:12.107Z,11.00
2023-02-27T16:52:13.773Z,10.30
2023-02-27T17:02:19.317Z,11.50
2023-02-27T17:12:22.648Z,14.20
2023-02-27T17:22:26.049Z,10.20
2023-02-27T17:27:27.810Z,10.00
2023-02-27T17:32:29.702Z,8.30
2023-02-27T17:37:31.415Z,9.80
2023-02-27T17:42:35.795Z,9.70
2023-02-27T17:47:37.528Z,10.20
2023-02-27T17:52:39.991Z,10.40
2023-02-27T17:57:41.816Z,10.20
2023-02-27T18:02:45.037Z,6.40
2023-02-27T18:07:46.713Z,8.20
2023-02-27T18:17:50.118Z,11.30
2023-02-27T18:22:51.923Z,8.30
2023-02-27T18:32:59.503Z,8.60
2023-02-27T18:38:02.343Z,12.10
2023-02-27T18:43:04.918Z,10.70
2023-02-27T18:48:06.892Z,12.00
2023-02-27T18:58:10.451Z,13.00
2023-02-27T19:03:12.315Z,11.80
2023-02-27T19:08:14.112Z,12.80
2023-02-27T19:13:15.803Z,16.90
2023-02-27T19:18:17.598Z,15.40
2023-02-27T19:23:19.322Z,22.30
2023-02-27T19:28:21.289Z,21.20
2023-02-27T19:38:24.716Z,16.30
2023-02-27T19:43:26.566Z,18.60
2023-02-27T19:48:28.292Z,17.30
2023-02-27T19:58:33.559Z,17.20
2023-02-27T20:03:36.450Z,17.30
2023-02-27T20:08:38.195Z,23.20
2023-02-27T20:18:42.929Z,18.60
2023-02-27T20:23:47.486Z,16.70
2023-02-27T20:28:52.168Z,25.20
2023-02-27T20:33:54.721Z,19.70
2023-02-27T20:38:58.447Z,26.00
2023-02-27T20:44:01.339Z,25.60
2023-02-27T20:49:04.498Z,33.70
2023-02-27T20:54:09.157Z,31.90
2023-02-27T20:59:14.970Z,28.90
2023-02-27T21:04:19.803Z,28.60
2023-02-27T21:09:22.281Z,32.90
2023-02-27T21:14:23.992Z,33.80
2023-02-27T21:19:26.017Z,34.10
2023-02-27T21:24:27.730Z,33.50
2023-02-27T21:34:31.650Z,29.20
2023-02-27T21:44:35.265Z,26.70
2023-02-27T21:49:38.414Z,24.50
2023-02-27T21:54:40.274Z,28.80
2023-02-27T21:59:42.587Z,30.30
2023-02-27T22:04:44.243Z,26.20
2023-02-27T22:09:49.859Z,24.00
2023-02-27T22:14:55.448Z,23.90
2023-02-27T22:19:57.927Z,20.80
2023-02-27T22:24:59.737Z,19.40
2023-02-27T22:30:01.549Z,16.90
2023-02-27T22:35:03.421Z,12.30
2023-02-27T22:40:05.895Z,11.80
2023-02-27T22:45:08.967Z,11.90
2023-02-27T22:50:14.254Z,12.80
2023-02-27T22:55:17.310Z,14.40
2023-02-27T23:00:19.226Z,13.40
2023-02-27T23:05:21.038Z,15.70
2023-02-27T23:15:24.390Z,15.50
2023-02-27T23:30:30.163Z,13.00
2023-02-27T23:35:31.857Z,13.40
2023-02-27T23:40:35.978Z,13.40
2023-02-27T23:45:39.806Z,13.80
2023-02-27T23:50:43.897Z,11.50
2023-02-27T23:55:45.677Z,14.00
